sensor_id;sensor_type;location;lat;lon;timestamp;P1;durP1;ratioP1;P2;durP2;ratioP2
10315;SDS011;5203;48.976;8.306;2022-09-09T00:04:31;6.93;;;2.70;;
10315;SDS011;5203;48.976;8.306;2022-09-09T00:10:00;3.95;;;2.33;;
10315;SDS011;5203;48.976;8.306;2022-09-09T00:12:42;3.22;;;2.60;;
10315;SDS011;5203;48.976;8.306;2022-09-09T00:15:22;3.97;;;2.63;;
10315;SDS011;5203;48.976;8.306;2022-09-09T00:18:46;6.20;;;3.10;;
10315;SDS011;5203;48.976;8.306;2022-09-09T00:21:17;4.97;;;2.83;;
10315;SDS011;5203;48.976;8.306;2022-09-09T00:23:55;4.18;;;2.70;;
10315;SDS011;5203;48.976;8.306;2022-09-09T00:31:50;3.58;;;2.88;;
10315;SDS011;5203;48.976;8.306;2022-09-09T00:34:24;2.90;;;2.60;;
10315;SDS011;5203;48.976;8.306;2022-09-09T00:36:51;2.78;;;2.58;;
10315;SDS011;5203;48.976;8.306;2022-09-09T00:44:39;3.65;;;2.90;;
10315;SDS011;5203;48.976;8.306;2022-09-09T00:50:16;3.13;;;2.85;;
10315;SDS011;5203;48.976;8.306;2022-09-09T00:55:49;5.05;;;2.80;;
10315;SDS011;5203;48.976;8.306;2022-09-09T00:58:21;3.38;;;2.72;;
10315;SDS011;5203;48.976;8.306;2022-09-09T01:00:50;4.15;;;2.70;;
10315;SDS011;5203;48.976;8.306;2022-09-09T01:03:38;5.65;;;2.53;;
10315;SDS011;5203;48.976;8.306;2022-09-09T01:14:29;2.65;;;2.45;;
10315;SDS011;5203;48.976;8.306;2022-09-09T01:17:20;3.75;;;2.50;;
10315;SDS011;5203;48.976;8.306;2022-09-09T01:19:50;2.85;;;2.45;;
10315;SDS011;5203;48.976;8.306;2022-09-09T01:28:33;5.77;;;2.40;;
10315;SDS011;5203;48.976;8.306;2022-09-09T01:31:02;4.30;;;2.40;;
10315;SDS011;5203;48.976;8.306;2022-09-09T01:33:31;4.30;;;2.23;;
10315;SDS011;5203;48.976;8.306;2022-09-09T01:38:37;3.27;;;2.13;;
10315;SDS011;5203;48.976;8.306;2022-09-09T01:41:03;2.90;;;2.10;;
10315;SDS011;5203;48.976;8.306;2022-09-09T01:43:29;2.33;;;1.93;;
10315;SDS011;5203;48.976;8.306;2022-09-09T01:45:56;5.27;;;2.20;;
10315;SDS011;5203;48.976;8.306;2022-09-09T01:48:25;4.47;;;2.63;;
10315;SDS011;5203;48.976;8.306;2022-09-09T01:50:51;3.63;;;2.20;;
10315;SDS011;5203;48.976;8.306;2022-09-09T01:53:17;4.23;;;2.40;;
10315;SDS011;5203;48.976;8.306;2022-09-09T01:55:46;3.33;;;2.10;;
10315;SDS011;5203;48.976;8.306;2022-09-09T01:58:28;4.37;;;2.60;;
10315;SDS011;5203;48.976;8.306;2022-09-09T02:04:02;2.67;;;2.27;;
10315;SDS011;5203;48.976;8.306;2022-09-09T02:09:02;2.73;;;2.13;;
10315;SDS011;5203;48.976;8.306;2022-09-09T02:11:30;2.40;;;1.93;;
10315;SDS011;5203;48.976;8.306;2022-09-09T02:14:01;4.20;;;2.00;;
10315;SDS011;5203;48.976;8.306;2022-09-09T02:16:41;1.97;;;1.87;;
10315;SDS011;5203;48.976;8.306;2022-09-09T02:19:35;3.33;;;1.90;;
10315;SDS011;5203;48.976;8.306;2022-09-09T02:22:04;2.90;;;1.87;;
10315;SDS011;5203;48.976;8.306;2022-09-09T02:24:32;5.57;;;2.10;;
10315;SDS011;5203;48.976;8.306;2022-09-09T02:27:00;3.27;;;1.80;;
10315;SDS011;5203;48.976;8.306;2022-09-09T02:29:40;2.17;;;1.90;;
10315;SDS011;5203;48.976;8.306;2022-09-09T02:32:11;3.83;;;2.00;;
10315;SDS011;5203;48.976;8.306;2022-09-09T02:34:45;2.80;;;1.73;;
10315;SDS011;5203;48.976;8.306;2022-09-09T02:37:16;3.15;;;1.92;;
10315;SDS011;5203;48.976;8.306;2022-09-09T02:39:44;3.53;;;1.73;;
10315;SDS011;5203;48.976;8.306;2022-09-09T02:42:09;2.17;;;1.90;;
10315;SDS011;5203;48.976;8.306;2022-09-09T02:44:35;3.25;;;1.80;;
10315;SDS011;5203;48.976;8.306;2022-09-09T02:53:16;2.00;;;1.90;;
10315;SDS011;5203;48.976;8.306;2022-09-09T02:55:24;3.70;;;2.00;;
10315;SDS011;5203;48.976;8.306;2022-09-09T02:57:51;3.35;;;1.92;;
10315;SDS011;5203;48.976;8.306;2022-09-09T03:00:22;2.40;;;1.90;;
10315;SDS011;5203;48.976;8.306;2022-09-09T03:02:50;2.00;;;1.80;;
10315;SDS011;5203;48.976;8.306;2022-09-09T03:05:16;2.00;;;1.90;;
10315;SDS011;5203;48.976;8.306;2022-09-09T03:07:42;2.17;;;2.00;;
10315;SDS011;5203;48.976;8.306;2022-09-09T03:10:08;2.97;;;1.85;;
10315;SDS011;5203;48.976;8.306;2022-09-09T03:12:35;2.30;;;1.80;;
10315;SDS011;5203;48.976;8.306;2022-09-09T03:15:01;3.08;;;2.00;;
10315;SDS011;5203;48.976;8.306;2022-09-09T03:17:27;2.63;;;1.70;;
10315;SDS011;5203;48.976;8.306;2022-09-09T03:19:53;4.97;;;2.03;;
10315;SDS011;5203;48.976;8.306;2022-09-09T03:22:20;2.38;;;1.90;;
10315;SDS011;5203;48.976;8.306;2022-09-09T03:24:46;2.17;;;1.98;;
10315;SDS011;5203;48.976;8.306;2022-09-09T03:27:12;3.15;;;2.00;;
10315;SDS011;5203;48.976;8.306;2022-09-09T03:29:39;1.85;;;1.75;;
10315;SDS011;5203;48.976;8.306;2022-09-09T03:32:05;4.38;;;2.10;;
10315;SDS011;5203;48.976;8.306;2022-09-09T03:34:30;2.38;;;1.90;;
10315;SDS011;5203;48.976;8.306;2022-09-09T03:36:56;2.03;;;1.83;;
10315;SDS011;5203;48.976;8.306;2022-09-09T03:39:22;2.25;;;1.90;;
10315;SDS011;5203;48.976;8.306;2022-09-09T03:41:48;1.90;;;1.80;;
10315;SDS011;5203;48.976;8.306;2022-09-09T03:44:15;2.55;;;2.00;;
10315;SDS011;5203;48.976;8.306;2022-09-09T03:46:40;1.80;;;1.70;;
10315;SDS011;5203;48.976;8.306;2022-09-09T03:49:06;2.20;;;2.00;;
10315;SDS011;5203;48.976;8.306;2022-09-09T03:51:31;2.00;;;1.90;;
10315;SDS011;5203;48.976;8.306;2022-09-09T03:54:01;2.72;;;1.90;;
10315;SDS011;5203;48.976;8.306;2022-09-09T03:56:26;2.20;;;2.10;;
10315;SDS011;5203;48.976;8.306;2022-09-09T03:58:52;2.47;;;1.92;;
10315;SDS011;5203;48.976;8.306;2022-09-09T04:01:18;2.40;;;2.08;;
10315;SDS011;5203;48.976;8.306;2022-09-09T04:03:43;2.15;;;1.95;;
10315;SDS011;5203;48.976;8.306;2022-09-09T04:06:10;1.80;;;1.70;;
10315;SDS011;5203;48.976;8.306;2022-09-09T04:08:37;3.33;;;2.00;;
10315;SDS011;5203;48.976;8.306;2022-09-09T04:11:03;2.28;;;2.00;;
10315;SDS011;5203;48.976;8.306;2022-09-09T04:13:31;2.67;;;2.17;;
10315;SDS011;5203;48.976;8.306;2022-09-09T04:16:03;4.25;;;2.00;;
10315;SDS011;5203;48.976;8.306;2022-09-09T04:18:29;2.72;;;2.20;;
10315;SDS011;5203;48.976;8.306;2022-09-09T04:20:54;2.00;;;1.90;;
10315;SDS011;5203;48.976;8.306;2022-09-09T04:23:22;2.60;;;1.90;;
10315;SDS011;5203;48.976;8.306;2022-09-09T04:25:50;2.38;;;1.77;;
10315;SDS011;5203;48.976;8.306;2022-09-09T04:28:17;2.80;;;1.98;;
10315;SDS011;5203;48.976;8.306;2022-09-09T04:30:44;2.50;;;2.00;;
10315;SDS011;5203;48.976;8.306;2022-09-09T04:33:11;3.10;;;1.95;;
10315;SDS011;5203;48.976;8.306;2022-09-09T04:35:37;3.58;;;1.90;;
10315;SDS011;5203;48.976;8.306;2022-09-09T04:38:04;2.75;;;2.30;;
10315;SDS011;5203;48.976;8.306;2022-09-09T04:40:32;2.78;;;2.03;;
10315;SDS011;5203;48.976;8.306;2022-09-09T04:42:58;4.35;;;2.15;;
10315;SDS011;5203;48.976;8.306;2022-09-09T04:45:25;2.42;;;2.22;;
10315;SDS011;5203;48.976;8.306;2022-09-09T04:47:51;1.98;;;1.88;;
10315;SDS011;5203;48.976;8.306;2022-09-09T04:50:17;2.15;;;1.83;;
10315;SDS011;5203;48.976;8.306;2022-09-09T04:52:43;3.85;;;2.00;;
10315;SDS011;5203;48.976;8.306;2022-09-09T04:55:09;1.95;;;1.85;;
10315;SDS011;5203;48.976;8.306;2022-09-09T04:57:35;2.75;;;1.90;;
10315;SDS011;5203;48.976;8.306;2022-09-09T05:00:01;2.17;;;2.08;;
10315;SDS011;5203;48.976;8.306;2022-09-09T05:02:28;2.35;;;2.00;;
10315;SDS011;5203;48.976;8.306;2022-09-09T05:04:53;2.53;;;1.80;;
10315;SDS011;5203;48.976;8.306;2022-09-09T05:07:20;2.50;;;2.03;;
10315;SDS011;5203;48.976;8.306;2022-09-09T05:09:45;2.13;;;2.03;;
10315;SDS011;5203;48.976;8.306;2022-09-09T05:12:14;2.90;;;2.33;;
10315;SDS011;5203;48.976;8.306;2022-09-09T05:14:41;2.30;;;2.10;;
10315;SDS011;5203;48.976;8.306;2022-09-09T05:17:07;2.33;;;2.13;;
10315;SDS011;5203;48.976;8.306;2022-09-09T05:19:33;3.50;;;2.00;;
10315;SDS011;5203;48.976;8.306;2022-09-09T05:21:59;2.33;;;1.95;;
10315;SDS011;5203;48.976;8.306;2022-09-09T05:24:26;1.95;;;1.75;;
10315;SDS011;5203;48.976;8.306;2022-09-09T05:26:51;3.35;;;2.33;;
10315;SDS011;5203;48.976;8.306;2022-09-09T05:29:17;4.00;;;2.00;;
10315;SDS011;5203;48.976;8.306;2022-09-09T05:31:44;2.50;;;2.13;;
10315;SDS011;5203;48.976;8.306;2022-09-09T05:34:10;2.10;;;1.90;;
10315;SDS011;5203;48.976;8.306;2022-09-09T05:36:36;3.00;;;2.10;;
10315;SDS011;5203;48.976;8.306;2022-09-09T05:39:02;4.63;;;2.85;;
10315;SDS011;5203;48.976;8.306;2022-09-09T05:41:28;2.40;;;1.85;;
10315;SDS011;5203;48.976;8.306;2022-09-09T05:43:54;4.65;;;2.20;;
10315;SDS011;5203;48.976;8.306;2022-09-09T05:46:21;3.60;;;2.20;;
10315;SDS011;5203;48.976;8.306;2022-09-09T05:48:50;3.05;;;2.28;;
10315;SDS011;5203;48.976;8.306;2022-09-09T05:51:23;4.35;;;2.60;;
10315;SDS011;5203;48.976;8.306;2022-09-09T05:53:51;2.30;;;2.10;;
10315;SDS011;5203;48.976;8.306;2022-09-09T05:56:19;3.13;;;2.30;;
10315;SDS011;5203;48.976;8.306;2022-09-09T05:58:47;4.47;;;2.20;;
10315;SDS011;5203;48.976;8.306;2022-09-09T06:01:14;2.50;;;2.30;;
10315;SDS011;5203;48.976;8.306;2022-09-09T06:03:47;5.05;;;1.95;;
10315;SDS011;5203;48.976;8.306;2022-09-09T06:06:15;2.58;;;2.15;;
10315;SDS011;5203;48.976;8.306;2022-09-09T06:08:50;3.13;;;2.10;;
10315;SDS011;5203;48.976;8.306;2022-09-09T06:11:20;2.72;;;2.20;;
10315;SDS011;5203;48.976;8.306;2022-09-09T06:13:48;2.10;;;2.00;;
10315;SDS011;5203;48.976;8.306;2022-09-09T06:16:16;3.95;;;2.25;;
10315;SDS011;5203;48.976;8.306;2022-09-09T06:18:43;3.65;;;2.50;;
10315;SDS011;5203;48.976;8.306;2022-09-09T06:21:11;2.78;;;2.50;;
10315;SDS011;5203;48.976;8.306;2022-09-09T06:23:41;5.90;;;2.25;;
10315;SDS011;5203;48.976;8.306;2022-09-09T06:26:09;3.83;;;2.58;;
10315;SDS011;5203;48.976;8.306;2022-09-09T06:28:46;4.13;;;2.42;;
10315;SDS011;5203;48.976;8.306;2022-09-09T06:31:13;3.15;;;1.98;;
10315;SDS011;5203;48.976;8.306;2022-09-09T06:33:47;4.07;;;2.40;;
10315;SDS011;5203;48.976;8.306;2022-09-09T06:36:18;2.35;;;2.15;;
10315;SDS011;5203;48.976;8.306;2022-09-09T06:38:45;3.10;;;2.20;;
10315;SDS011;5203;48.976;8.306;2022-09-09T06:41:12;3.42;;;2.20;;
10315;SDS011;5203;48.976;8.306;2022-09-09T06:43:39;2.85;;;2.10;;
10315;SDS011;5203;48.976;8.306;2022-09-09T06:46:11;3.78;;;2.30;;
10315;SDS011;5203;48.976;8.306;2022-09-09T06:48:40;3.33;;;2.15;;
10315;SDS011;5203;48.976;8.306;2022-09-09T06:51:11;2.85;;;2.15;;
10315;SDS011;5203;48.976;8.306;2022-09-09T06:53:41;3.45;;;2.08;;
10315;SDS011;5203;48.976;8.306;2022-09-09T06:58:35;2.88;;;2.58;;
10315;SDS011;5203;48.976;8.306;2022-09-09T07:01:10;6.70;;;2.53;;
10315;SDS011;5203;48.976;8.306;2022-09-09T07:03:38;3.50;;;2.30;;
10315;SDS011;5203;48.976;8.306;2022-09-09T07:06:04;4.60;;;2.38;;
10315;SDS011;5203;48.976;8.306;2022-09-09T07:08:30;2.60;;;2.10;;
10315;SDS011;5203;48.976;8.306;2022-09-09T07:11:03;4.63;;;2.40;;
10315;SDS011;5203;48.976;8.306;2022-09-09T07:13:30;2.42;;;2.22;;
10315;SDS011;5203;48.976;8.306;2022-09-09T07:16:03;2.72;;;2.45;;
10315;SDS011;5203;48.976;8.306;2022-09-09T07:18:33;3.05;;;2.30;;
10315;SDS011;5203;48.976;8.306;2022-09-09T07:20:59;4.95;;;2.45;;
10315;SDS011;5203;48.976;8.306;2022-09-09T07:23:26;4.82;;;2.42;;
10315;SDS011;5203;48.976;8.306;2022-09-09T07:25:51;5.80;;;2.60;;
10315;SDS011;5203;48.976;8.306;2022-09-09T07:28:18;4.13;;;2.38;;
10315;SDS011;5203;48.976;8.306;2022-09-09T07:30:52;4.03;;;2.28;;
10315;SDS011;5203;48.976;8.306;2022-09-09T07:33:22;3.45;;;2.40;;
10315;SDS011;5203;48.976;8.306;2022-09-09T07:35:49;2.47;;;2.20;;
10315;SDS011;5203;48.976;8.306;2022-09-09T07:38:15;3.67;;;2.75;;
10315;SDS011;5203;48.976;8.306;2022-09-09T07:40:40;4.57;;;2.40;;
10315;SDS011;5203;48.976;8.306;2022-09-09T07:43:06;5.10;;;2.67;;
10315;SDS011;5203;48.976;8.306;2022-09-09T07:45:33;2.65;;;2.10;;
10315;SDS011;5203;48.976;8.306;2022-09-09T07:47:59;3.03;;;2.78;;
10315;SDS011;5203;48.976;8.306;2022-09-09T07:50:25;3.90;;;2.70;;
10315;SDS011;5203;48.976;8.306;2022-09-09T07:52:51;8.85;;;2.85;;
10315;SDS011;5203;48.976;8.306;2022-09-09T07:55:18;2.65;;;2.30;;
10315;SDS011;5203;48.976;8.306;2022-09-09T07:57:44;4.22;;;2.50;;
10315;SDS011;5203;48.976;8.306;2022-09-09T08:00:10;2.90;;;2.50;;
10315;SDS011;5203;48.976;8.306;2022-09-09T08:02:36;2.50;;;2.05;;
10315;SDS011;5203;48.976;8.306;2022-09-09T08:05:02;3.15;;;2.47;;
10315;SDS011;5203;48.976;8.306;2022-09-09T08:07:28;4.97;;;2.35;;
10315;SDS011;5203;48.976;8.306;2022-09-09T08:09:54;4.85;;;2.50;;
10315;SDS011;5203;48.976;8.306;2022-09-09T08:12:20;3.28;;;2.40;;
10315;SDS011;5203;48.976;8.306;2022-09-09T08:14:46;5.00;;;2.30;;
10315;SDS011;5203;48.976;8.306;2022-09-09T08:17:13;4.82;;;2.35;;
10315;SDS011;5203;48.976;8.306;2022-09-09T08:19:39;3.97;;;2.47;;
10315;SDS011;5203;48.976;8.306;2022-09-09T08:22:05;7.22;;;2.45;;
10315;SDS011;5203;48.976;8.306;2022-09-09T08:24:31;4.95;;;2.80;;
10315;SDS011;5203;48.976;8.306;2022-09-09T08:26:57;4.60;;;2.47;;
10315;SDS011;5203;48.976;8.306;2022-09-09T08:29:22;6.18;;;3.05;;
10315;SDS011;5203;48.976;8.306;2022-09-09T08:31:49;2.97;;;2.40;;
10315;SDS011;5203;48.976;8.306;2022-09-09T08:34:20;4.10;;;2.42;;
10315;SDS011;5203;48.976;8.306;2022-09-09T08:36:47;4.30;;;2.63;;
10315;SDS011;5203;48.976;8.306;2022-09-09T08:39:14;3.03;;;2.55;;
10315;SDS011;5203;48.976;8.306;2022-09-09T08:50:22;6.78;;;2.92;;
10315;SDS011;5203;48.976;8.306;2022-09-09T08:55:51;6.65;;;2.72;;
10315;SDS011;5203;48.976;8.306;2022-09-09T08:58:23;3.17;;;2.88;;
10315;SDS011;5203;48.976;8.306;2022-09-09T09:10:01;2.53;;;2.30;;
10315;SDS011;5203;48.976;8.306;2022-09-09T09:12:40;5.57;;;2.60;;
10315;SDS011;5203;48.976;8.306;2022-09-09T09:15:23;3.50;;;2.60;;
10315;SDS011;5203;48.976;8.306;2022-09-09T09:17:51;2.90;;;2.38;;
10315;SDS011;5203;48.976;8.306;2022-09-09T09:20:18;7.20;;;2.42;;
10315;SDS011;5203;48.976;8.306;2022-09-09T09:22:51;3.75;;;2.60;;
10315;SDS011;5203;48.976;8.306;2022-09-09T09:25:21;4.35;;;2.55;;
10315;SDS011;5203;48.976;8.306;2022-09-09T09:30:40;2.95;;;2.50;;
10315;SDS011;5203;48.976;8.306;2022-09-09T09:35:39;4.68;;;2.60;;
10315;SDS011;5203;48.976;8.306;2022-09-09T09:38:15;4.65;;;2.38;;
10315;SDS011;5203;48.976;8.306;2022-09-09T09:40:57;3.50;;;2.13;;
10315;SDS011;5203;48.976;8.306;2022-09-09T09:43:25;3.05;;;2.70;;
10315;SDS011;5203;48.976;8.306;2022-09-09T09:45:53;5.45;;;2.25;;
10315;SDS011;5203;48.976;8.306;2022-09-09T09:48:20;2.83;;;2.30;;
10315;SDS011;5203;48.976;8.306;2022-09-09T09:50:56;4.43;;;2.42;;
10315;SDS011;5203;48.976;8.306;2022-09-09T09:53:34;5.00;;;2.55;;
10315;SDS011;5203;48.976;8.306;2022-09-09T09:56:13;3.25;;;2.28;;
10315;SDS011;5203;48.976;8.306;2022-09-09T10:01:29;3.67;;;2.40;;
10315;SDS011;5203;48.976;8.306;2022-09-09T10:04:18;4.85;;;2.55;;
10315;SDS011;5203;48.976;8.306;2022-09-09T10:06:48;3.65;;;2.53;;
10315;SDS011;5203;48.976;8.306;2022-09-09T10:09:30;3.90;;;2.83;;
10315;SDS011;5203;48.976;8.306;2022-09-09T10:22:56;3.80;;;2.40;;
10315;SDS011;5203;48.976;8.306;2022-09-09T10:36:53;4.55;;;2.88;;
10315;SDS011;5203;48.976;8.306;2022-09-09T10:42:05;2.00;;;1.90;;
10315;SDS011;5203;48.976;8.306;2022-09-09T10:50:15;3.90;;;2.78;;
10315;SDS011;5203;48.976;8.306;2022-09-09T10:52:55;4.05;;;2.50;;
10315;SDS011;5203;48.976;8.306;2022-09-09T10:55:45;3.95;;;2.20;;
10315;SDS011;5203;48.976;8.306;2022-09-09T10:58:39;2.47;;;2.10;;
10315;SDS011;5203;48.976;8.306;2022-09-09T11:01:39;3.83;;;2.35;;
10315;SDS011;5203;48.976;8.306;2022-09-09T11:04:18;2.65;;;2.08;;
10315;SDS011;5203;48.976;8.306;2022-09-09T11:06:54;3.53;;;2.40;;
10315;SDS011;5203;48.976;8.306;2022-09-09T11:09:28;3.35;;;2.22;;
10315;SDS011;5203;48.976;8.306;2022-09-09T11:11:58;3.92;;;2.35;;
10315;SDS011;5203;48.976;8.306;2022-09-09T11:14:31;6.53;;;2.28;;
10315;SDS011;5203;48.976;8.306;2022-09-09T11:17:05;3.90;;;2.35;;
10315;SDS011;5203;48.976;8.306;2022-09-09T11:19:37;3.67;;;2.75;;
10315;SDS011;5203;48.976;8.306;2022-09-09T11:24:58;5.25;;;2.63;;
10315;SDS011;5203;48.976;8.306;2022-09-09T11:40:43;2.58;;;2.38;;
10315;SDS011;5203;48.976;8.306;2022-09-09T11:43:13;3.10;;;2.45;;
10315;SDS011;5203;48.976;8.306;2022-09-09T11:45:49;4.35;;;2.90;;
10315;SDS011;5203;48.976;8.306;2022-09-09T11:48:33;3.53;;;2.45;;
10315;SDS011;5203;48.976;8.306;2022-09-09T11:51:03;3.17;;;2.70;;
10315;SDS011;5203;48.976;8.306;2022-09-09T11:53:52;3.28;;;2.35;;
10315;SDS011;5203;48.976;8.306;2022-09-09T11:56:30;3.30;;;2.70;;
10315;SDS011;5203;48.976;8.306;2022-09-09T12:01:37;3.58;;;2.45;;
10315;SDS011;5203;48.976;8.306;2022-09-09T12:04:27;2.50;;;2.30;;
10315;SDS011;5203;48.976;8.306;2022-09-09T12:11:50;4.05;;;2.55;;
10315;SDS011;5203;48.976;8.306;2022-09-09T12:15:00;3.20;;;2.58;;
10315;SDS011;5203;48.976;8.306;2022-09-09T12:17:09;5.78;;;2.70;;
10315;SDS011;5203;48.976;8.306;2022-09-09T12:19:44;3.63;;;2.40;;
10315;SDS011;5203;48.976;8.306;2022-09-09T12:25:07;3.13;;;2.40;;
10315;SDS011;5203;48.976;8.306;2022-09-09T12:27:48;3.28;;;2.58;;
10315;SDS011;5203;48.976;8.306;2022-09-09T12:30:34;4.60;;;2.80;;
10315;SDS011;5203;48.976;8.306;2022-09-09T12:33:20;4.45;;;2.70;;
10315;SDS011;5203;48.976;8.306;2022-09-09T12:35:56;2.45;;;2.22;;
10315;SDS011;5203;48.976;8.306;2022-09-09T12:38:29;3.47;;;2.60;;
10315;SDS011;5203;48.976;8.306;2022-09-09T12:41:01;3.53;;;2.40;;
10315;SDS011;5203;48.976;8.306;2022-09-09T12:43:27;4.57;;;2.72;;
10315;SDS011;5203;48.976;8.306;2022-09-09T12:46:03;3.53;;;2.28;;
10315;SDS011;5203;48.976;8.306;2022-09-09T12:48:38;2.75;;;2.17;;
10315;SDS011;5203;48.976;8.306;2022-09-09T12:51:16;3.28;;;2.25;;
10315;SDS011;5203;48.976;8.306;2022-09-09T12:53:54;2.28;;;2.08;;
10315;SDS011;5203;48.976;8.306;2022-09-09T12:56:21;5.70;;;2.63;;
10315;SDS011;5203;48.976;8.306;2022-09-09T12:58:51;2.53;;;2.33;;
10315;SDS011;5203;48.976;8.306;2022-09-09T13:01:30;5.90;;;2.40;;
10315;SDS011;5203;48.976;8.306;2022-09-09T13:03:58;4.85;;;2.50;;
10315;SDS011;5203;48.976;8.306;2022-09-09T13:06:25;3.90;;;2.67;;
10315;SDS011;5203;48.976;8.306;2022-09-09T13:08:53;3.13;;;2.30;;
10315;SDS011;5203;48.976;8.306;2022-09-09T13:11:24;4.70;;;2.35;;
10315;SDS011;5203;48.976;8.306;2022-09-09T13:13:54;4.38;;;2.28;;
10315;SDS011;5203;48.976;8.306;2022-09-09T13:18:58;4.80;;;2.70;;
10315;SDS011;5203;48.976;8.306;2022-09-09T13:21:36;2.30;;;2.10;;
10315;SDS011;5203;48.976;8.306;2022-09-09T13:24:07;4.75;;;2.50;;
10315;SDS011;5203;48.976;8.306;2022-09-09T13:26:58;2.90;;;2.60;;
10315;SDS011;5203;48.976;8.306;2022-09-09T13:29:26;2.42;;;2.20;;
10315;SDS011;5203;48.976;8.306;2022-09-09T13:31:53;2.50;;;2.30;;
10315;SDS011;5203;48.976;8.306;2022-09-09T13:34:27;4.50;;;2.60;;
10315;SDS011;5203;48.976;8.306;2022-09-09T13:37:09;4.53;;;2.40;;
10315;SDS011;5203;48.976;8.306;2022-09-09T13:39:53;2.92;;;2.35;;
10315;SDS011;5203;48.976;8.306;2022-09-09T13:42:27;3.53;;;2.70;;
10315;SDS011;5203;48.976;8.306;2022-09-09T13:44:55;4.28;;;2.42;;
10315;SDS011;5203;48.976;8.306;2022-09-09T13:47:30;5.45;;;2.95;;
10315;SDS011;5203;48.976;8.306;2022-09-09T13:49:58;6.75;;;3.10;;
10315;SDS011;5203;48.976;8.306;2022-09-09T13:52:23;4.88;;;2.88;;
10315;SDS011;5203;48.976;8.306;2022-09-09T13:54:56;4.43;;;2.45;;
10315;SDS011;5203;48.976;8.306;2022-09-09T13:57:24;2.85;;;2.50;;
10315;SDS011;5203;48.976;8.306;2022-09-09T13:59:51;3.45;;;2.45;;
10315;SDS011;5203;48.976;8.306;2022-09-09T14:02:19;6.45;;;3.55;;
10315;SDS011;5203;48.976;8.306;2022-09-09T14:04:48;9.15;;;3.70;;
10315;SDS011;5203;48.976;8.306;2022-09-09T14:07:16;6.32;;;3.10;;
10315;SDS011;5203;48.976;8.306;2022-09-09T14:09:42;2.75;;;2.38;;
10315;SDS011;5203;48.976;8.306;2022-09-09T14:12:10;3.90;;;2.35;;
10315;SDS011;5203;48.976;8.306;2022-09-09T14:14:36;3.15;;;2.55;;
10315;SDS011;5203;48.976;8.306;2022-09-09T14:17:02;4.40;;;2.63;;
10315;SDS011;5203;48.976;8.306;2022-09-09T14:19:28;4.05;;;2.53;;
10315;SDS011;5203;48.976;8.306;2022-09-09T14:21:55;7.75;;;3.13;;
10315;SDS011;5203;48.976;8.306;2022-09-09T14:24:22;4.50;;;2.60;;
10315;SDS011;5203;48.976;8.306;2022-09-09T14:26:47;4.47;;;3.00;;
10315;SDS011;5203;48.976;8.306;2022-09-09T14:29:13;6.47;;;2.53;;
10315;SDS011;5203;48.976;8.306;2022-09-09T14:31:39;2.60;;;2.40;;
10315;SDS011;5203;48.976;8.306;2022-09-09T14:34:04;5.07;;;2.63;;
10315;SDS011;5203;48.976;8.306;2022-09-09T14:36:31;4.50;;;2.70;;
10315;SDS011;5203;48.976;8.306;2022-09-09T14:38:56;3.95;;;2.63;;
10315;SDS011;5203;48.976;8.306;2022-09-09T14:41:23;4.75;;;2.88;;
10315;SDS011;5203;48.976;8.306;2022-09-09T14:43:50;6.30;;;3.13;;
10315;SDS011;5203;48.976;8.306;2022-09-09T14:46:17;7.22;;;2.58;;
10315;SDS011;5203;48.976;8.306;2022-09-09T14:48:44;5.43;;;2.75;;
10315;SDS011;5203;48.976;8.306;2022-09-09T14:51:22;5.13;;;2.80;;
10315;SDS011;5203;48.976;8.306;2022-09-09T14:53:53;4.15;;;2.75;;
10315;SDS011;5203;48.976;8.306;2022-09-09T14:56:20;4.43;;;2.33;;
10315;SDS011;5203;48.976;8.306;2022-09-09T14:58:48;2.60;;;2.40;;
10315;SDS011;5203;48.976;8.306;2022-09-09T15:01:15;4.43;;;2.50;;
10315;SDS011;5203;48.976;8.306;2022-09-09T15:03:55;4.53;;;2.22;;
10315;SDS011;5203;48.976;8.306;2022-09-09T15:06:26;2.30;;;2.10;;
10315;SDS011;5203;48.976;8.306;2022-09-09T15:08:54;2.88;;;2.58;;
10315;SDS011;5203;48.976;8.306;2022-09-09T15:11:25;4.78;;;2.65;;
10315;SDS011;5203;48.976;8.306;2022-09-09T15:13:53;4.45;;;2.42;;
10315;SDS011;5203;48.976;8.306;2022-09-09T15:16:19;3.22;;;2.58;;
10315;SDS011;5203;48.976;8.306;2022-09-09T15:18:49;3.42;;;2.47;;
10315;SDS011;5203;48.976;8.306;2022-09-09T15:21:17;2.75;;;2.22;;
10315;SDS011;5203;48.976;8.306;2022-09-09T15:23:45;3.08;;;2.50;;
10315;SDS011;5203;48.976;8.306;2022-09-09T15:26:12;4.88;;;2.60;;
10315;SDS011;5203;48.976;8.306;2022-09-09T15:28:42;3.80;;;2.30;;
10315;SDS011;5203;48.976;8.306;2022-09-09T15:31:10;2.75;;;2.22;;
10315;SDS011;5203;48.976;8.306;2022-09-09T15:33:46;3.75;;;2.75;;
10315;SDS011;5203;48.976;8.306;2022-09-09T15:36:23;4.78;;;2.30;;
10315;SDS011;5203;48.976;8.306;2022-09-09T15:38:50;3.67;;;2.40;;
10315;SDS011;5203;48.976;8.306;2022-09-09T15:41:17;2.80;;;2.08;;
10315;SDS011;5203;48.976;8.306;2022-09-09T15:43:45;2.83;;;2.35;;
10315;SDS011;5203;48.976;8.306;2022-09-09T15:48:49;7.13;;;2.90;;
10315;SDS011;5203;48.976;8.306;2022-09-09T15:51:16;3.10;;;2.22;;
10315;SDS011;5203;48.976;8.306;2022-09-09T15:53:41;5.78;;;2.45;;
10315;SDS011;5203;48.976;8.306;2022-09-09T15:56:08;2.42;;;2.22;;
10315;SDS011;5203;48.976;8.306;2022-09-09T15:58:34;2.30;;;2.10;;
10315;SDS011;5203;48.976;8.306;2022-09-09T16:01:10;2.10;;;1.95;;
10315;SDS011;5203;48.976;8.306;2022-09-09T16:03:39;2.53;;;2.00;;
10315;SDS011;5203;48.976;8.306;2022-09-09T16:06:11;2.47;;;1.90;;
10315;SDS011;5203;48.976;8.306;2022-09-09T16:08:39;1.63;;;1.50;;
10315;SDS011;5203;48.976;8.306;2022-09-09T16:11:11;2.45;;;1.88;;
10315;SDS011;5203;48.976;8.306;2022-09-09T16:13:40;3.72;;;1.92;;
10315;SDS011;5203;48.976;8.306;2022-09-09T16:16:07;1.95;;;1.80;;
10315;SDS011;5203;48.976;8.306;2022-09-09T16:18:39;3.17;;;2.10;;
10315;SDS011;5203;48.976;8.306;2022-09-09T16:21:13;2.35;;;2.00;;
10315;SDS011;5203;48.976;8.306;2022-09-09T16:23:44;2.20;;;2.00;;
10315;SDS011;5203;48.976;8.306;2022-09-09T16:26:11;3.40;;;1.92;;
10315;SDS011;5203;48.976;8.306;2022-09-09T16:28:39;1.83;;;1.67;;
10315;SDS011;5203;48.976;8.306;2022-09-09T16:31:06;1.80;;;1.70;;
10315;SDS011;5203;48.976;8.306;2022-09-09T16:33:32;3.85;;;1.88;;
10315;SDS011;5203;48.976;8.306;2022-09-09T16:36:04;2.45;;;1.90;;
10315;SDS011;5203;48.976;8.306;2022-09-09T16:38:33;1.90;;;1.80;;
10315;SDS011;5203;48.976;8.306;2022-09-09T16:41:00;2.80;;;2.00;;
10315;SDS011;5203;48.976;8.306;2022-09-09T16:43:27;2.20;;;2.00;;
10315;SDS011;5203;48.976;8.306;2022-09-09T16:45:52;2.03;;;1.88;;
10315;SDS011;5203;48.976;8.306;2022-09-09T16:48:18;2.00;;;1.80;;
10315;SDS011;5203;48.976;8.306;2022-09-09T16:50:45;2.90;;;1.80;;
10315;SDS011;5203;48.976;8.306;2022-09-09T16:53:11;2.30;;;2.10;;
10315;SDS011;5203;48.976;8.306;2022-09-09T16:55:38;2.53;;;1.98;;
10315;SDS011;5203;48.976;8.306;2022-09-09T16:58:05;2.45;;;2.08;;
10315;SDS011;5203;48.976;8.306;2022-09-09T17:00:31;2.55;;;2.30;;
10315;SDS011;5203;48.976;8.306;2022-09-09T17:02:59;3.08;;;1.90;;
10315;SDS011;5203;48.976;8.306;2022-09-09T17:05:24;1.95;;;1.80;;
10315;SDS011;5203;48.976;8.306;2022-09-09T17:07:50;3.00;;;1.90;;
10315;SDS011;5203;48.976;8.306;2022-09-09T17:10:16;2.80;;;1.83;;
10315;SDS011;5203;48.976;8.306;2022-09-09T17:12:42;2.08;;;1.90;;
10315;SDS011;5203;48.976;8.306;2022-09-09T17:15:08;2.65;;;2.20;;
10315;SDS011;5203;48.976;8.306;2022-09-09T17:17:35;2.42;;;1.88;;
10315;SDS011;5203;48.976;8.306;2022-09-09T17:20:00;3.67;;;2.15;;
10315;SDS011;5203;48.976;8.306;2022-09-09T17:22:27;2.40;;;2.08;;
10315;SDS011;5203;48.976;8.306;2022-09-09T17:24:53;3.53;;;2.00;;
10315;SDS011;5203;48.976;8.306;2022-09-09T17:27:19;1.95;;;1.80;;
10315;SDS011;5203;48.976;8.306;2022-09-09T17:29:45;2.55;;;2.10;;
10315;SDS011;5203;48.976;8.306;2022-09-09T17:32:11;1.98;;;1.83;;
10315;SDS011;5203;48.976;8.306;2022-09-09T17:34:37;1.95;;;1.85;;
10315;SDS011;5203;48.976;8.306;2022-09-09T17:37:03;2.83;;;2.17;;
10315;SDS011;5203;48.976;8.306;2022-09-09T17:39:31;2.47;;;1.90;;
10315;SDS011;5203;48.976;8.306;2022-09-09T17:41:57;2.13;;;1.75;;